sensor_id;sensor_type;location;lat;lon;timestamp;temperature;humidity
26505;DHT22;19493;48.042;7.584;2022-07-23T00:00:55;21.30;99.90
26505;DHT22;19493;48.042;7.584;2022-07-23T00:03:21;21.30;99.90
26505;DHT22;19493;48.042;7.584;2022-07-23T00:05:46;21.30;99.90
26505;DHT22;19493;48.042;7.584;2022-07-23T00:08:12;21.20;99.90
26505;DHT22;19493;48.042;7.584;2022-07-23T00:10:37;21.10;99.90
26505;DHT22;19493;48.042;7.584;2022-07-23T00:13:03;21.00;99.90
26505;DHT22;19493;48.042;7.584;2022-07-23T00:15:29;21.00;99.90
26505;DHT22;19493;48.042;7.584;2022-07-23T00:17:55;20.90;99.90
26505;DHT22;19493;48.042;7.584;2022-07-23T00:20:20;20.90;99.90
26505;DHT22;19493;48.042;7.584;2022-07-23T00:22:51;20.90;99.90
26505;DHT22;19493;48.042;7.584;2022-07-23T00:25:17;21.00;99.90
26505;DHT22;19493;48.042;7.584;2022-07-23T00:27:43;21.10;99.90
26505;DHT22;19493;48.042;7.584;2022-07-23T00:30:09;21.10;99.90
26505;DHT22;19493;48.042;7.584;2022-07-23T00:32:54;21.10;99.90
26505;DHT22;19493;48.042;7.584;2022-07-23T00:35:20;21.20;99.90
26505;DHT22;19493;48.042;7.584;2022-07-23T00:37:46;21.30;99.90
26505;DHT22;19493;48.042;7.584;2022-07-23T00:40:12;21.40;99.90
26505;DHT22;19493;48.042;7.584;2022-07-23T00:42:39;21.50;99.90
26505;DHT22;19493;48.042;7.584;2022-07-23T00:45:06;21.50;99.90
26505;DHT22;19493;48.042;7.584;2022-07-23T00:47:32;21.60;99.90
26505;DHT22;19493;48.042;7.584;2022-07-23T00:49:58;21.60;99.90
26505;DHT22;19493;48.042;7.584;2022-07-23T00:52:23;21.60;99.90
26505;DHT22;19493;48.042;7.584;2022-07-23T00:54:49;21.40;99.90
26505;DHT22;19493;48.042;7.584;2022-07-23T00:57:15;21.20;99.90
26505;DHT22;19493;48.042;7.584;2022-07-23T00:59:42;21.10;99.90
26505;DHT22;19493;48.042;7.584;2022-07-23T01:02:07;21.00;99.90
26505;DHT22;19493;48.042;7.584;2022-07-23T01:04:33;20.90;99.90
26505;DHT22;19493;48.042;7.584;2022-07-23T01:06:59;20.90;99.90
26505;DHT22;19493;48.042;7.584;2022-07-23T01:09:25;20.80;99.90
26505;DHT22;19493;48.042;7.584;2022-07-23T01:11:51;20.70;99.90
26505;DHT22;19493;48.042;7.584;2022-07-23T01:14:19;20.60;99.90
26505;DHT22;19493;48.042;7.584;2022-07-23T01:16:46;20.60;99.90
26505;DHT22;19493;48.042;7.584;2022-07-23T01:19:13;20.50;99.90
26505;DHT22;19493;48.042;7.584;2022-07-23T01:21:41;20.40;99.90
26505;DHT22;19493;48.042;7.584;2022-07-23T01:24:08;20.30;99.90
26505;DHT22;19493;48.042;7.584;2022-07-23T01:26:34;20.30;99.90
26505;DHT22;19493;48.042;7.584;2022-07-23T01:29:00;20.20;99.90
26505;DHT22;19493;48.042;7.584;2022-07-23T01:31:26;20.20;99.90
26505;DHT22;19493;48.042;7.584;2022-07-23T01:33:52;20.10;99.90
26505;DHT22;19493;48.042;7.584;2022-07-23T01:36:18;20.00;99.90
26505;DHT22;19493;48.042;7.584;2022-07-23T01:38:43;20.00;99.90
26505;DHT22;19493;48.042;7.584;2022-07-23T01:41:09;20.00;99.90
26505;DHT22;19493;48.042;7.584;2022-07-23T01:43:34;20.00;99.90
26505;DHT22;19493;48.042;7.584;2022-07-23T01:46:00;20.00;99.90
26505;DHT22;19493;48.042;7.584;2022-07-23T01:48:25;20.00;99.90
26505;DHT22;19493;48.042;7.584;2022-07-23T01:50:51;20.00;99.90
26505;DHT22;19493;48.042;7.584;2022-07-23T01:53:17;19.90;99.90
26505;DHT22;19493;48.042;7.584;2022-07-23T01:55:43;19.90;99.90
26505;DHT22;19493;48.042;7.584;2022-07-23T01:58:08;19.90;99.90
26505;DHT22;19493;48.042;7.584;2022-07-23T02:00:34;19.90;99.90
26505;DHT22;19493;48.042;7.584;2022-07-23T02:03:00;19.90;99.90
26505;DHT22;19493;48.042;7.584;2022-07-23T02:05:26;19.90;99.90
26505;DHT22;19493;48.042;7.584;2022-07-23T02:07:54;19.90;99.90
26505;DHT22;19493;48.042;7.584;2022-07-23T02:10:20;19.90;99.90
26505;DHT22;19493;48.042;7.584;2022-07-23T02:12:46;19.80;99.90
26505;DHT22;19493;48.042;7.584;2022-07-23T02:15:11;19.70;99.90
26505;DHT22;19493;48.042;7.584;2022-07-23T02:17:37;19.60;99.90
26505;DHT22;19493;48.042;7.584;2022-07-23T02:20:04;19.60;99.90
26505;DHT22;19493;48.042;7.584;2022-07-23T02:22:30;19.60;99.90
26505;DHT22;19493;48.042;7.584;2022-07-23T02:24:55;19.50;99.90
26505;DHT22;19493;48.042;7.584;2022-07-23T02:27:21;19.50;99.90
26505;DHT22;19493;48.042;7.584;2022-07-23T02:29:47;19.50;99.90
26505;DHT22;19493;48.042;7.584;2022-07-23T02:32:12;19.50;99.90
26505;DHT22;19493;48.042;7.584;2022-07-23T02:34:38;19.40;99.90
26505;DHT22;19493;48.042;7.584;2022-07-23T02:37:04;19.40;99.90
26505;DHT22;19493;48.042;7.584;2022-07-23T02:39:29;19.40;99.90
26505;DHT22;19493;48.042;7.584;2022-07-23T02:41:55;19.50;99.90
26505;DHT22;19493;48.042;7.584;2022-07-23T02:44:20;19.60;99.90
26505;DHT22;19493;48.042;7.584;2022-07-23T02:46:46;19.70;99.90
26505;DHT22;19493;48.042;7.584;2022-07-23T02:49:12;19.70;99.90
26505;DHT22;19493;48.042;7.584;2022-07-23T02:51:37;19.70;99.90
26505;DHT22;19493;48.042;7.584;2022-07-23T02:54:03;19.70;99.90
26505;DHT22;19493;48.042;7.584;2022-07-23T02:56:28;19.70;99.90
26505;DHT22;19493;48.042;7.584;2022-07-23T02:58:54;19.70;99.90
26505;DHT22;19493;48.042;7.584;2022-07-23T03:01:19;19.80;99.90
26505;DHT22;19493;48.042;7.584;2022-07-23T03:03:45;19.80;99.90
26505;DHT22;19493;48.042;7.584;2022-07-23T03:06:10;19.80;99.90
26505;DHT22;19493;48.042;7.584;2022-07-23T03:08:36;19.80;99.90
26505;DHT22;19493;48.042;7.584;2022-07-23T03:11:02;19.70;99.90
26505;DHT22;19493;48.042;7.584;2022-07-23T03:13:27;19.70;99.90
26505;DHT22;19493;48.042;7.584;2022-07-23T03:15:53;19.70;99.90
26505;DHT22;19493;48.042;7.584;2022-07-23T03:18:18;19.70;99.90
26505;DHT22;19493;48.042;7.584;2022-07-23T03:20:44;19.70;99.90
26505;DHT22;19493;48.042;7.584;2022-07-23T03:23:09;19.80;99.90
26505;DHT22;19493;48.042;7.584;2022-07-23T03:25:35;19.80;99.90
26505;DHT22;19493;48.042;7.584;2022-07-23T03:28:00;19.80;99.90
26505;DHT22;19493;48.042;7.584;2022-07-23T03:30:26;19.90;99.90
26505;DHT22;19493;48.042;7.584;2022-07-23T03:32:51;19.90;99.90
26505;DHT22;19493;48.042;7.584;2022-07-23T03:35:17;19.90;99.90
26505;DHT22;19493;48.042;7.584;2022-07-23T03:37:43;20.00;99.90
26505;DHT22;19493;48.042;7.584;2022-07-23T03:40:08;20.10;99.90
26505;DHT22;19493;48.042;7.584;2022-07-23T03:42:34;20.10;99.90
26505;DHT22;19493;48.042;7.584;2022-07-23T03:45:01;20.10;99.90
26505;DHT22;19493;48.042;7.584;2022-07-23T03:47:27;20.10;99.90
26505;DHT22;19493;48.042;7.584;2022-07-23T03:49:52;20.10;99.90
26505;DHT22;19493;48.042;7.584;2022-07-23T03:52:18;20.10;99.90
26505;DHT22;19493;48.042;7.584;2022-07-23T03:54:43;20.10;99.90
26505;DHT22;19493;48.042;7.584;2022-07-23T03:57:09;20.10;99.90
26505;DHT22;19493;48.042;7.584;2022-07-23T03:59:34;20.10;99.90
26505;DHT22;19493;48.042;7.584;2022-07-23T04:02:00;20.10;99.90
26505;DHT22;19493;48.042;7.584;2022-07-23T04:04:25;20.00;99.90
26505;DHT22;19493;48.042;7.584;2022-07-23T04:06:51;19.90;99.90
26505;DHT22;19493;48.042;7.584;2022-07-23T04:09:16;19.80;99.90
26505;DHT22;19493;48.042;7.584;2022-07-23T04:11:42;19.80;99.90
26505;DHT22;19493;48.042;7.584;2022-07-23T04:14:08;19.70;99.90
26505;DHT22;19493;48.042;7.584;2022-07-23T04:16:33;19.70;99.90
26505;DHT22;19493;48.042;7.584;2022-07-23T04:18:59;19.60;99.90
26505;DHT22;19493;48.042;7.584;2022-07-23T04:21:24;19.60;99.90
26505;DHT22;19493;48.042;7.584;2022-07-23T04:23:50;19.60;99.90
26505;DHT22;19493;48.042;7.584;2022-07-23T04:26:16;19.70;99.90
26505;DHT22;19493;48.042;7.584;2022-07-23T04:28:42;19.70;99.90
26505;DHT22;19493;48.042;7.584;2022-07-23T04:31:08;19.70;99.90
26505;DHT22;19493;48.042;7.584;2022-07-23T04:33:33;19.80;99.90
26505;DHT22;19493;48.042;7.584;2022-07-23T04:35:59;19.90;99.90
26505;DHT22;19493;48.042;7.584;2022-07-23T04:38:24;20.00;99.90
26505;DHT22;19493;48.042;7.584;2022-07-23T04:40:50;20.10;99.90
26505;DHT22;19493;48.042;7.584;2022-07-23T04:43:16;20.20;99.90
26505;DHT22;19493;48.042;7.584;2022-07-23T04:45:41;20.20;99.90
26505;DHT22;19493;48.042;7.584;2022-07-23T04:48:07;20.30;99.90
26505;DHT22;19493;48.042;7.584;2022-07-23T04:50:32;20.30;99.90
26505;DHT22;19493;48.042;7.584;2022-07-23T04:52:58;20.30;99.90
26505;DHT22;19493;48.042;7.584;2022-07-23T04:55:24;20.40;99.90
26505;DHT22;19493;48.042;7.584;2022-07-23T04:57:49;20.50;99.90
26505;DHT22;19493;48.042;7.584;2022-07-23T05:00:15;20.60;99.90
26505;DHT22;19493;48.042;7.584;2022-07-23T05:02:41;20.60;99.90
26505;DHT22;19493;48.042;7.584;2022-07-23T05:05:07;20.70;99.90
26505;DHT22;19493;48.042;7.584;2022-07-23T05:07:32;20.80;99.90
26505;DHT22;19493;48.042;7.584;2022-07-23T05:09:58;21.00;99.90
26505;DHT22;19493;48.042;7.584;2022-07-23T05:12:23;21.00;99.90
26505;DHT22;19493;48.042;7.584;2022-07-23T05:14:49;21.00;99.90
26505;DHT22;19493;48.042;7.584;2022-07-23T05:17:14;21.00;99.90
26505;DHT22;19493;48.042;7.584;2022-07-23T05:19:40;21.00;99.90
26505;DHT22;19493;48.042;7.584;2022-07-23T05:22:05;21.00;99.90
26505;DHT22;19493;48.042;7.584;2022-07-23T05:24:31;21.10;99.90
26505;DHT22;19493;48.042;7.584;2022-07-23T05:26:56;21.10;99.90
26505;DHT22;19493;48.042;7.584;2022-07-23T05:29:22;21.10;99.90
26505;DHT22;19493;48.042;7.584;2022-07-23T05:31:47;21.30;99.90
26505;DHT22;19493;48.042;7.584;2022-07-23T05:34:13;21.40;99.90
26505;DHT22;19493;48.042;7.584;2022-07-23T05:36:39;21.60;99.90
26505;DHT22;19493;48.042;7.584;2022-07-23T05:39:04;21.80;99.90
26505;DHT22;19493;48.042;7.584;2022-07-23T05:41:30;21.90;99.90
26505;DHT22;19493;48.042;7.584;2022-07-23T05:43:56;22.00;99.90
26505;DHT22;19493;48.042;7.584;2022-07-23T05:46:21;22.10;99.90
26505;DHT22;19493;48.042;7.584;2022-07-23T05:48:47;22.20;99.90
26505;DHT22;19493;48.042;7.584;2022-07-23T05:51:20;22.20;99.90
26505;DHT22;19493;48.042;7.584;2022-07-23T05:53:46;22.10;99.90
26505;DHT22;19493;48.042;7.584;2022-07-23T05:56:12;22.00;99.90
26505;DHT22;19493;48.042;7.584;2022-07-23T05:58:37;22.00;99.90
26505;DHT22;19493;48.042;7.584;2022-07-23T06:01:03;22.00;99.90
26505;DHT22;19493;48.042;7.584;2022-07-23T06:03:28;22.00;99.90
26505;DHT22;19493;48.042;7.584;2022-07-23T06:05:54;22.10;99.90
26505;DHT22;19493;48.042;7.584;2022-07-23T06:08:19;22.10;99.90
26505;DHT22;19493;48.042;7.584;2022-07-23T06:10:45;22.10;99.90
26505;DHT22;19493;48.042;7.584;2022-07-23T06:13:10;22.10;99.90
26505;DHT22;19493;48.042;7.584;2022-07-23T06:15:36;22.20;99.90
26505;DHT22;19493;48.042;7.584;2022-07-23T06:18:02;22.30;99.90
26505;DHT22;19493;48.042;7.584;2022-07-23T06:20:27;22.40;99.90
26505;DHT22;19493;48.042;7.584;2022-07-23T06:22:56;22.60;99.90
26505;DHT22;19493;48.042;7.584;2022-07-23T06:25:21;22.80;99.90
26505;DHT22;19493;48.042;7.584;2022-07-23T06:27:47;23.00;99.90
26505;DHT22;19493;48.042;7.584;2022-07-23T06:30:13;23.20;99.90
26505;DHT22;19493;48.042;7.584;2022-07-23T06:32:50;23.30;99.90
26505;DHT22;19493;48.042;7.584;2022-07-23T06:35:16;23.50;99.90
26505;DHT22;19493;48.042;7.584;2022-07-23T06:37:41;23.60;99.90
26505;DHT22;19493;48.042;7.584;2022-07-23T06:40:08;23.80;99.90
26505;DHT22;19493;48.042;7.584;2022-07-23T06:42:33;24.00;99.90
26505;DHT22;19493;48.042;7.584;2022-07-23T06:45:05;24.00;99.90
26505;DHT22;19493;48.042;7.584;2022-07-23T06:47:31;24.20;99.90
26505;DHT22;19493;48.042;7.584;2022-07-23T06:49:57;24.20;99.90
26505;DHT22;19493;48.042;7.584;2022-07-23T06:52:22;24.30;99.90
26505;DHT22;19493;48.042;7.584;2022-07-23T06:54:48;24.20;99.90
26505;DHT22;19493;48.042;7.584;2022-07-23T06:57:14;24.20;99.90
26505;DHT22;19493;48.042;7.584;2022-07-23T06:59:40;24.20;99.90
26505;DHT22;19493;48.042;7.584;2022-07-23T07:02:06;24.20;99.90
26505;DHT22;19493;48.042;7.584;2022-07-23T07:04:32;24.20;99.90
26505;DHT22;19493;48.042;7.584;2022-07-23T07:06:58;24.20;99.90
26505;DHT22;19493;48.042;7.584;2022-07-23T07:09:23;24.40;99.90
26505;DHT22;19493;48.042;7.584;2022-07-23T07:11:49;24.60;99.90
26505;DHT22;19493;48.042;7.584;2022-07-23T07:14:15;24.80;99.90
26505;DHT22;19493;48.042;7.584;2022-07-23T07:16:40;24.90;99.90
26505;DHT22;19493;48.042;7.584;2022-07-23T07:19:06;24.90;99.90
26505;DHT22;19493;48.042;7.584;2022-07-23T07:21:31;25.10;99.90
26505;DHT22;19493;48.042;7.584;2022-07-23T07:23:57;25.30;99.90
26505;DHT22;19493;48.042;7.584;2022-07-23T07:26:23;25.60;99.90
26505;DHT22;19493;48.042;7.584;2022-07-23T07:28:48;25.80;99.90
26505;DHT22;19493;48.042;7.584;2022-07-23T07:31:14;26.00;99.90
26505;DHT22;19493;48.042;7.584;2022-07-23T07:33:39;26.10;99.90
26505;DHT22;19493;48.042;7.584;2022-07-23T07:36:05;26.20;99.90
26505;DHT22;19493;48.042;7.584;2022-07-23T07:38:31;26.20;99.90
26505;DHT22;19493;48.042;7.584;2022-07-23T07:40:56;26.20;99.90
26505;DHT22;19493;48.042;7.584;2022-07-23T07:43:22;26.30;99.90
26505;DHT22;19493;48.042;7.584;2022-07-23T07:45:47;26.10;99.90
26505;DHT22;19493;48.042;7.584;2022-07-23T07:48:13;26.00;99.90
26505;DHT22;19493;48.042;7.584;2022-07-23T07:50:38;25.90;99.90
26505;DHT22;19493;48.042;7.584;2022-07-23T07:53:04;25.90;99.90
26505;DHT22;19493;48.042;7.584;2022-07-23T07:55:30;26.00;99.90
26505;DHT22;19493;48.042;7.584;2022-07-23T07:57:57;26.10;99.90
26505;DHT22;19493;48.042;7.584;2022-07-23T08:00:22;26.20;99.90
26505;DHT22;19493;48.042;7.584;2022-07-23T08:02:50;26.30;99.90
26505;DHT22;19493;48.042;7.584;2022-07-23T08:05:27;26.30;99.90
26505;DHT22;19493;48.042;7.584;2022-07-23T08:07:53;26.30;99.90
26505;DHT22;19493;48.042;7.584;2022-07-23T08:10:19;26.40;99.90
26505;DHT22;19493;48.042;7.584;2022-07-23T08:12:49;26.50;99.90
26505;DHT22;19493;48.042;7.584;2022-07-23T08:15:17;26.40;99.90
26505;DHT22;19493;48.042;7.584;2022-07-23T08:17:44;26.50;99.90
26505;DHT22;19493;48.042;7.584;2022-07-23T08:20:12;26.50;99.90
26505;DHT22;19493;48.042;7.584;2022-07-23T08:22:48;26.60;99.90
26505;DHT22;19493;48.042;7.584;2022-07-23T08:25:16;26.60;99.90
26505;DHT22;19493;48.042;7.584;2022-07-23T08:27:42;26.70;99.90
26505;DHT22;19493;48.042;7.584;2022-07-23T08:30:08;26.60;99.90
26505;DHT22;19493;48.042;7.584;2022-07-23T08:32:38;26.50;99.90
26505;DHT22;19493;48.042;7.584;2022-07-23T08:35:12;26.40;99.90
26505;DHT22;19493;48.042;7.584;2022-07-23T08:37:37;26.60;99.90
26505;DHT22;19493;48.042;7.584;2022-07-23T08:40:03;26.90;99.90
26505;DHT22;19493;48.042;7.584;2022-07-23T08:42:29;27.20;99.90
26505;DHT22;19493;48.042;7.584;2022-07-23T08:44:55;27.20;99.90
26505;DHT22;19493;48.042;7.584;2022-07-23T08:49:47;28.10;99.90
26505;DHT22;19493;48.042;7.584;2022-07-23T08:52:13;28.30;99.90
26505;DHT22;19493;48.042;7.584;2022-07-23T08:54:39;28.30;99.90
26505;DHT22;19493;48.042;7.584;2022-07-23T08:57:05;28.40;99.90
26505;DHT22;19493;48.042;7.584;2022-07-23T08:59:31;28.50;99.90
26505;DHT22;19493;48.042;7.584;2022-07-23T09:01:57;28.70;99.90
26505;DHT22;19493;48.042;7.584;2022-07-23T09:04:23;29.20;99.90
26505;DHT22;19493;48.042;7.584;2022-07-23T09:06:48;29.50;99.90
26505;DHT22;19493;48.042;7.584;2022-07-23T09:09:18;29.60;99.90
26505;DHT22;19493;48.042;7.584;2022-07-23T09:11:48;29.50;99.90
26505;DHT22;19493;48.042;7.584;2022-07-23T09:14:37;29.90;99.90
26505;DHT22;19493;48.042;7.584;2022-07-23T09:17:29;29.90;97.50
26505;DHT22;19493;48.042;7.584;2022-07-23T09:20:10;29.80;97.70
26505;DHT22;19493;48.042;7.584;2022-07-23T09:22:36;30.20;97.10
26505;DHT22;19493;48.042;7.584;2022-07-23T09:27:57;31.10;92.90
26505;DHT22;19493;48.042;7.584;2022-07-23T09:30:27;32.30;86.40
26505;DHT22;19493;48.042;7.584;2022-07-23T09:33:13;33.00;78.10
26505;DHT22;19493;48.042;7.584;2022-07-23T09:35:49;33.60;72.90
26505;DHT22;19493;48.042;7.584;2022-07-23T09:38:16;34.00;67.90
26505;DHT22;19493;48.042;7.584;2022-07-23T09:40:42;34.50;62.90
26505;DHT22;19493;48.042;7.584;2022-07-23T09:43:08;34.70;60.10
26505;DHT22;19493;48.042;7.584;2022-07-23T09:45:34;34.80;58.60
26505;DHT22;19493;48.042;7.584;2022-07-23T09:48:14;35.00;58.00
26505;DHT22;19493;48.042;7.584;2022-07-23T09:50:41;35.80;54.60
26505;DHT22;19493;48.042;7.584;2022-07-23T09:53:08;35.50;52.20
26505;DHT22;19493;48.042;7.584;2022-07-23T09:55:36;35.30;51.90
26505;DHT22;19493;48.042;7.584;2022-07-23T09:58:04;35.00;51.70
26505;DHT22;19493;48.042;7.584;2022-07-23T10:00:31;34.80;53.20
26505;DHT22;19493;48.042;7.584;2022-07-23T10:02:58;34.90;52.70
26505;DHT22;19493;48.042;7.584;2022-07-23T10:05:24;35.00;52.60
26505;DHT22;19493;48.042;7.584;2022-07-23T10:07:51;35.40;52.70
26505;DHT22;19493;48.042;7.584;2022-07-23T10:10:17;35.60;51.10
26505;DHT22;19493;48.042;7.584;2022-07-23T10:12:44;35.50;50.40
26505;DHT22;19493;48.042;7.584;2022-07-23T10:15:10;36.00;50.40
26505;DHT22;19493;48.042;7.584;2022-07-23T10:17:36;35.60;49.00
26505;DHT22;19493;48.042;7.584;2022-07-23T10:20:02;34.90;50.30
26505;DHT22;19493;48.042;7.584;2022-07-23T10:22:34;34.80;51.70
26505;DHT22;19493;48.042;7.584;2022-07-23T10:25:36;35.00;50.60
26505;DHT22;19493;48.042;7.584;2022-07-23T10:39:32;36.60;46.90
26505;DHT22;19493;48.042;7.584;2022-07-23T10:44:43;37.90;44.80
26505;DHT22;19493;48.042;7.584;2022-07-23T10:47:10;38.90;43.40
26505;DHT22;19493;48.042;7.584;2022-07-23T10:49:47;39.20;43.30
26505;DHT22;19493;48.042;7.584;2022-07-23T10:54:39;40.40;39.60
26505;DHT22;19493;48.042;7.584;2022-07-23T10:57:06;39.50;40.50
26505;DHT22;19493;48.042;7.584;2022-07-23T11:02:34;40.00;41.00
26505;DHT22;19493;48.042;7.584;2022-07-23T11:07:32;39.50;39.20
26505;DHT22;19493;48.042;7.584;2022-07-23T11:09:57;38.30;40.00
26505;DHT22;19493;48.042;7.584;2022-07-23T11:15:01;37.50;43.00
26505;DHT22;19493;48.042;7.584;2022-07-23T11:17:27;37.60;42.80
26505;DHT22;19493;48.042;7.584;2022-07-23T11:25:09;36.70;44.70
26505;DHT22;19493;48.042;7.584;2022-07-23T11:27:44;36.70;44.80
26505;DHT22;19493;48.042;7.584;2022-07-23T11:30:56;36.60;46.00
26505;DHT22;19493;48.042;7.584;2022-07-23T11:35:40;37.20;46.30
26505;DHT22;19493;48.042;7.584;2022-07-23T11:38:08;37.50;46.00
26505;DHT22;19493;48.042;7.584;2022-07-23T11:40:38;36.90;45.60
26505;DHT22;19493;48.042;7.584;2022-07-23T11:43:08;36.10;46.40
26505;DHT22;19493;48.042;7.584;2022-07-23T11:45:39;36.20;48.40
26505;DHT22;19493;48.042;7.584;2022-07-23T11:48:07;36.80;45.80
26505;DHT22;19493;48.042;7.584;2022-07-23T11:50:33;36.80;45.70
26505;DHT22;19493;48.042;7.584;2022-07-23T11:53:00;36.20;45.40
26505;DHT22;19493;48.042;7.584;2022-07-23T11:55:26;35.60;47.30
26505;DHT22;19493;48.042;7.584;2022-07-23T11:57:54;34.80;49.20
26505;DHT22;19493;48.042;7.584;2022-07-23T12:00:25;34.30;50.30
26505;DHT22;19493;48.042;7.584;2022-07-23T12:03:02;34.30;51.70
26505;DHT22;19493;48.042;7.584;2022-07-23T12:05:36;34.10;51.20
26505;DHT22;19493;48.042;7.584;2022-07-23T12:08:06;35.30;51.10
26505;DHT22;19493;48.042;7.584;2022-07-23T12:10:40;36.70;48.30
26505;DHT22;19493;48.042;7.584;2022-07-23T12:13:14;38.00;44.90
26505;DHT22;19493;48.042;7.584;2022-07-23T12:15:46;38.60;44.70
26505;DHT22;19493;48.042;7.584;2022-07-23T12:18:16;39.30;42.30
26505;DHT22;19493;48.042;7.584;2022-07-23T12:20:47;39.70;41.90
26505;DHT22;19493;48.042;7.584;2022-07-23T12:23:15;39.60;40.50
26505;DHT22;19493;48.042;7.584;2022-07-23T12:25:45;39.00;41.40
26505;DHT22;19493;48.042;7.584;2022-07-23T12:28:12;37.20;44.40
26505;DHT22;19493;48.042;7.584;2022-07-23T12:30:45;36.20;45.70
26505;DHT22;19493;48.042;7.584;2022-07-23T12:33:12;35.90;47.20
26505;DHT22;19493;48.042;7.584;2022-07-23T12:35:44;36.40;47.70
26505;DHT22;19493;48.042;7.584;2022-07-23T12:38:19;38.50;44.20
26505;DHT22;19493;48.042;7.584;2022-07-23T12:40:47;40.00;42.10
26505;DHT22;19493;48.042;7.584;2022-07-23T12:43:36;41.00;40.00
26505;DHT22;19493;48.042;7.584;2022-07-23T12:46:13;41.70;39.20
26505;DHT22;19493;48.042;7.584;2022-07-23T12:51:19;40.70;38.60
26505;DHT22;19493;48.042;7.584;2022-07-23T12:56:26;40.20;40.20
26505;DHT22;19493;48.042;7.584;2022-07-23T12:58:56;41.10;38.60
26505;DHT22;19493;48.042;7.584;2022-07-23T13:01:34;42.00;37.40
26505;DHT22;19493;48.042;7.584;2022-07-23T13:04:11;43.50;35.30
26505;DHT22;19493;48.042;7.584;2022-07-23T13:09:16;43.50;35.00
26505;DHT22;19493;48.042;7.584;2022-07-23T13:11:43;42.40;35.30
26505;DHT22;19493;48.042;7.584;2022-07-23T13:14:11;40.70;37.20
26505;DHT22;19493;48.042;7.584;2022-07-23T13:16:36;39.10;39.60
26505;DHT22;19493;48.042;7.584;2022-07-23T13:19:02;38.20;41.50
26505;DHT22;19493;48.042;7.584;2022-07-23T13:21:28;38.40;41.80
26505;DHT22;19493;48.042;7.584;2022-07-23T13:23:55;39.70;40.70
26505;DHT22;19493;48.042;7.584;2022-07-23T13:26:21;40.20;38.30
26505;DHT22;19493;48.042;7.584;2022-07-23T13:28:47;41.20;38.20
26505;DHT22;19493;48.042;7.584;2022-07-23T13:31:13;40.80;37.60
26505;DHT22;19493;48.042;7.584;2022-07-23T13:33:39;39.10;40.10
26505;DHT22;19493;48.042;7.584;2022-07-23T13:36:05;37.10;41.40
26505;DHT22;19493;48.042;7.584;2022-07-23T13:38:31;35.70;44.00
26505;DHT22;19493;48.042;7.584;2022-07-23T13:40:56;34.30;46.10
26505;DHT22;19493;48.042;7.584;2022-07-23T13:43:23;33.40;47.80
26505;DHT22;19493;48.042;7.584;2022-07-23T13:45:50;32.70;49.50
26505;DHT22;19493;48.042;7.584;2022-07-23T13:48:17;32.20;51.60
26505;DHT22;19493;48.042;7.584;2022-07-23T13:50:43;32.00;51.40
26505;DHT22;19493;48.042;7.584;2022-07-23T13:53:11;31.90;51.60
26505;DHT22;19493;48.042;7.584;2022-07-23T13:55:38;31.90;51.40
26505;DHT22;19493;48.042;7.584;2022-07-23T13:58:05;31.70;52.00
26505;DHT22;19493;48.042;7.584;2022-07-23T14:00:33;31.60;51.80
26505;DHT22;19493;48.042;7.584;2022-07-23T14:03:00;31.40;51.70
26505;DHT22;19493;48.042;7.584;2022-07-23T14:05:25;31.10;52.80
26505;DHT22;19493;48.042;7.584;2022-07-23T14:07:51;30.80;52.10
26505;DHT22;19493;48.042;7.584;2022-07-23T14:10:19;30.70;52.50
26505;DHT22;19493;48.042;7.584;2022-07-23T14:12:47;30.70;53.20
26505;DHT22;19493;48.042;7.584;2022-07-23T14:15:13;31.30;50.50
26505;DHT22;19493;48.042;7.584;2022-07-23T14:17:40;31.70;51.30
26505;DHT22;19493;48.042;7.584;2022-07-23T14:20:07;32.00;51.40
26505;DHT22;19493;48.042;7.584;2022-07-23T14:22:33;32.10;51.90
26505;DHT22;19493;48.042;7.584;2022-07-23T14:24:59;32.10;50.80
26505;DHT22;19493;48.042;7.584;2022-07-23T14:27:26;32.00;51.30
26505;DHT22;19493;48.042;7.584;2022-07-23T14:29:52;32.10;50.40
26505;DHT22;19493;48.042;7.584;2022-07-23T14:32:17;32.30;49.60
26505;DHT22;19493;48.042;7.584;2022-07-23T14:34:43;33.20;48.20
26505;DHT22;19493;48.042;7.584;2022-07-23T14:37:10;34.80;47.00
26505;DHT22;19493;48.042;7.584;2022-07-23T14:39:37;35.10;47.20
26505;DHT22;19493;48.042;7.584;2022-07-23T14:42:03;36.40;45.20
26505;DHT22;19493;48.042;7.584;2022-07-23T14:44:29;37.60;43.00
26505;DHT22;19493;48.042;7.584;2022-07-23T14:46:55;39.20;40.30
26505;DHT22;19493;48.042;7.584;2022-07-23T14:49:20;39.40;37.30
26505;DHT22;19493;48.042;7.584;2022-07-23T14:51:46;38.30;39.10
26505;DHT22;19493;48.042;7.584;2022-07-23T14:54:12;37.00;40.90
26505;DHT22;19493;48.042;7.584;2022-07-23T14:56:37;36.00;42.40
26505;DHT22;19493;48.042;7.584;2022-07-23T14:59:04;35.10;44.70
26505;DHT22;19493;48.042;7.584;2022-07-23T15:01:29;34.80;48.30
26505;DHT22;19493;48.042;7.584;2022-07-23T15:03:55;36.10;46.50
26505;DHT22;19493;48.042;7.584;2022-07-23T15:06:20;36.10;44.80
26505;DHT22;19493;48.042;7.584;2022-07-23T15:08:46;37.10;44.30
26505;DHT22;19493;48.042;7.584;2022-07-23T15:11:12;37.80;42.30
26505;DHT22;19493;48.042;7.584;2022-07-23T15:13:38;38.70;40.50
26505;DHT22;19493;48.042;7.584;2022-07-23T15:16:05;39.20;39.70
26505;DHT22;19493;48.042;7.584;2022-07-23T15:18:31;39.60;38.30
26505;DHT22;19493;48.042;7.584;2022-07-23T15:20:56;40.00;37.80
26505;DHT22;19493;48.042;7.584;2022-07-23T15:23:23;40.90;37.00
26505;DHT22;19493;48.042;7.584;2022-07-23T15:25:49;40.90;36.00
26505;DHT22;19493;48.042;7.584;2022-07-23T15:28:15;41.40;35.90
26505;DHT22;19493;48.042;7.584;2022-07-23T15:30:40;42.10;35.20
26505;DHT22;19493;48.042;7.584;2022-07-23T15:33:06;42.10;33.40
26505;DHT22;19493;48.042;7.584;2022-07-23T15:35:32;42.30;34.10
26505;DHT22;19493;48.042;7.584;2022-07-23T15:37:58;42.10;32.80
26505;DHT22;19493;48.042;7.584;2022-07-23T15:40:24;42.00;33.30
26505;DHT22;19493;48.042;7.584;2022-07-23T15:42:50;42.00;33.00
26505;DHT22;19493;48.042;7.584;2022-07-23T15:45:16;41.90;33.10
26505;DHT22;19493;48.042;7.584;2022-07-23T15:47:41;41.60;33.70
26505;DHT22;19493;48.042;7.584;2022-07-23T15:50:08;41.10;33.70
26505;DHT22;19493;48.042;7.584;2022-07-23T15:52:35;41.30;34.60
26505;DHT22;19493;48.042;7.584;2022-07-23T15:55:01;40.90;34.50
26505;DHT22;19493;48.042;7.584;2022-07-23T15:57:27;41.40;34.00
26505;DHT22;19493;48.042;7.584;2022-07-23T15:59:53;41.30;33.70
26505;DHT22;19493;48.042;7.584;2022-07-23T16:02:21;41.70;33.00
26505;DHT22;19493;48.042;7.584;2022-07-23T16:04:47;41.30;34.10
26505;DHT22;19493;48.042;7.584;2022-07-23T16:07:13;41.00;33.80
26505;DHT22;19493;48.042;7.584;2022-07-23T16:09:38;40.90;34.50
26505;DHT22;19493;48.042;7.584;2022-07-23T16:12:04;41.10;33.90
26505;DHT22;19493;48.042;7.584;2022-07-23T16:14:30;40.70;34.70